sensor_id;sensor_type;location;lat;lon;timestamp;P1;durP1;ratioP1;P2;durP2;ratioP2
21087;SDS011;10702;51.516;9.944;2023-02-19T00:00:55;5.30;;;1.50;;
21087;SDS011;10702;51.516;9.944;2023-02-19T00:03:23;3.20;;;1.90;;
21087;SDS011;10702;51.516;9.944;2023-02-19T00:05:50;2.63;;;1.63;;
21087;SDS011;10702;51.516;9.944;2023-02-19T00:08:18;2.77;;;1.70;;
21087;SDS011;10702;51.516;9.944;2023-02-19T00:10:46;1.40;;;0.90;;
21087;SDS011;10702;51.516;9.944;2023-02-19T00:13:14;1.90;;;1.07;;
21087;SDS011;10702;51.516;9.944;2023-02-19T00:15:41;1.93;;;1.10;;
21087;SDS011;10702;51.516;9.944;2023-02-19T00:18:08;1.30;;;1.00;;
21087;SDS011;10702;51.516;9.944;2023-02-19T00:20:36;1.63;;;1.17;;
21087;SDS011;10702;51.516;9.944;2023-02-19T00:23:03;2.57;;;1.70;;
21087;SDS011;10702;51.516;9.944;2023-02-19T00:25:30;7.20;;;2.70;;
21087;SDS011;10702;51.516;9.944;2023-02-19T00:27:59;7.50;;;2.87;;
21087;SDS011;10702;51.516;9.944;2023-02-19T00:30:26;2.63;;;1.60;;
21087;SDS011;10702;51.516;9.944;2023-02-19T00:32:54;2.20;;;1.50;;
21087;SDS011;10702;51.516;9.944;2023-02-19T00:35:21;2.23;;;1.53;;
21087;SDS011;10702;51.516;9.944;2023-02-19T00:37:49;3.43;;;1.60;;
21087;SDS011;10702;51.516;9.944;2023-02-19T00:40:16;2.20;;;1.60;;
21087;SDS011;10702;51.516;9.944;2023-02-19T00:42:43;2.57;;;1.67;;
21087;SDS011;10702;51.516;9.944;2023-02-19T00:45:12;3.37;;;1.50;;
21087;SDS011;10702;51.516;9.944;2023-02-19T00:47:39;2.20;;;1.60;;
21087;SDS011;10702;51.516;9.944;2023-02-19T00:50:07;3.33;;;1.73;;
21087;SDS011;10702;51.516;9.944;2023-02-19T00:52:34;2.63;;;1.53;;
21087;SDS011;10702;51.516;9.944;2023-02-19T00:55:02;2.20;;;1.53;;
21087;SDS011;10702;51.516;9.944;2023-02-19T00:57:29;2.67;;;1.60;;
21087;SDS011;10702;51.516;9.944;2023-02-19T00:59:56;2.73;;;1.67;;
21087;SDS011;10702;51.516;9.944;2023-02-19T01:02:25;2.10;;;1.47;;
21087;SDS011;10702;51.516;9.944;2023-02-19T01:04:52;1.97;;;1.40;;
21087;SDS011;10702;51.516;9.944;2023-02-19T01:07:20;2.53;;;1.30;;
21087;SDS011;10702;51.516;9.944;2023-02-19T01:09:47;2.20;;;1.40;;
21087;SDS011;10702;51.516;9.944;2023-02-19T01:12:15;2.07;;;1.20;;
21087;SDS011;10702;51.516;9.944;2023-02-19T01:14:42;2.33;;;1.60;;
21087;SDS011;10702;51.516;9.944;2023-02-19T01:17:09;2.97;;;1.50;;
21087;SDS011;10702;51.516;9.944;2023-02-19T01:19:38;2.17;;;1.37;;
21087;SDS011;10702;51.516;9.944;2023-02-19T01:22:05;2.07;;;1.33;;
21087;SDS011;10702;51.516;9.944;2023-02-19T01:24:33;2.33;;;1.50;;
21087;SDS011;10702;51.516;9.944;2023-02-19T01:27:00;2.20;;;1.57;;
21087;SDS011;10702;51.516;9.944;2023-02-19T01:29:27;3.17;;;1.73;;
21087;SDS011;10702;51.516;9.944;2023-02-19T01:31:55;2.73;;;1.93;;
21087;SDS011;10702;51.516;9.944;2023-02-19T01:34:22;3.10;;;2.23;;
21087;SDS011;10702;51.516;9.944;2023-02-19T01:36:51;3.70;;;2.40;;
21087;SDS011;10702;51.516;9.944;2023-02-19T01:39:18;5.00;;;3.40;;
21087;SDS011;10702;51.516;9.944;2023-02-19T01:41:46;5.67;;;3.70;;
21087;SDS011;10702;51.516;9.944;2023-02-19T01:47:07;6.43;;;4.60;;
21087;SDS011;10702;51.516;9.944;2023-02-19T01:49:35;8.40;;;4.77;;
21087;SDS011;10702;51.516;9.944;2023-02-19T01:52:07;6.77;;;4.40;;
21087;SDS011;10702;51.516;9.944;2023-02-19T01:54:36;9.93;;;4.70;;
21087;SDS011;10702;51.516;9.944;2023-02-19T01:57:05;6.70;;;4.53;;
21087;SDS011;10702;51.516;9.944;2023-02-19T01:59:33;7.00;;;4.67;;
21087;SDS011;10702;51.516;9.944;2023-02-19T02:02:00;7.40;;;4.43;;
21087;SDS011;10702;51.516;9.944;2023-02-19T02:04:28;6.60;;;4.40;;
21087;SDS011;10702;51.516;9.944;2023-02-19T02:06:56;7.17;;;4.73;;
21087;SDS011;10702;51.516;9.944;2023-02-19T02:09:27;6.77;;;4.50;;
21087;SDS011;10702;51.516;9.944;2023-02-19T02:12:13;6.20;;;4.20;;
21087;SDS011;10702;51.516;9.944;2023-02-19T02:14:41;5.90;;;4.23;;
21087;SDS011;10702;51.516;9.944;2023-02-19T02:17:12;7.03;;;4.40;;
21087;SDS011;10702;51.516;9.944;2023-02-19T02:19:51;6.70;;;4.27;;
21087;SDS011;10702;51.516;9.944;2023-02-19T02:22:24;5.13;;;3.80;;
21087;SDS011;10702;51.516;9.944;2023-02-19T02:27:46;6.30;;;3.27;;
21087;SDS011;10702;51.516;9.944;2023-02-19T02:33:05;7.17;;;2.83;;
21087;SDS011;10702;51.516;9.944;2023-02-19T02:35:43;4.57;;;3.23;;
21087;SDS011;10702;51.516;9.944;2023-02-19T02:38:11;4.27;;;3.20;;
21087;SDS011;10702;51.516;9.944;2023-02-19T02:40:41;5.40;;;3.33;;
21087;SDS011;10702;51.516;9.944;2023-02-19T02:43:09;5.10;;;3.50;;
21087;SDS011;10702;51.516;9.944;2023-02-19T02:45:36;5.20;;;3.70;;
21087;SDS011;10702;51.516;9.944;2023-02-19T02:48:08;5.87;;;3.30;;
21087;SDS011;10702;51.516;9.944;2023-02-19T02:50:37;6.63;;;3.53;;
21087;SDS011;10702;51.516;9.944;2023-02-19T02:53:07;5.17;;;3.63;;
21087;SDS011;10702;51.516;9.944;2023-02-19T02:55:55;5.10;;;3.50;;
21087;SDS011;10702;51.516;9.944;2023-02-19T02:58:23;7.23;;;4.30;;
21087;SDS011;10702;51.516;9.944;2023-02-19T03:00:51;7.87;;;4.27;;
21087;SDS011;10702;51.516;9.944;2023-02-19T03:03:40;7.17;;;4.33;;
21087;SDS011;10702;51.516;9.944;2023-02-19T03:06:09;7.90;;;4.77;;
21087;SDS011;10702;51.516;9.944;2023-02-19T03:08:39;7.90;;;5.03;;
21087;SDS011;10702;51.516;9.944;2023-02-19T03:11:09;7.77;;;4.43;;
21087;SDS011;10702;51.516;9.944;2023-02-19T03:13:57;7.37;;;5.00;;
21087;SDS011;10702;51.516;9.944;2023-02-19T03:16:43;8.77;;;5.10;;
21087;SDS011;10702;51.516;9.944;2023-02-19T03:19:31;11.33;;;5.27;;
21087;SDS011;10702;51.516;9.944;2023-02-19T03:22:02;10.67;;;5.07;;
21087;SDS011;10702;51.516;9.944;2023-02-19T03:24:36;11.67;;;6.13;;
21087;SDS011;10702;51.516;9.944;2023-02-19T03:27:21;9.50;;;5.80;;
21087;SDS011;10702;51.516;9.944;2023-02-19T03:29:53;12.70;;;6.90;;
21087;SDS011;10702;51.516;9.944;2023-02-19T03:32:23;11.73;;;6.77;;
21087;SDS011;10702;51.516;9.944;2023-02-19T03:34:53;14.80;;;7.53;;
21087;SDS011;10702;51.516;9.944;2023-02-19T03:37:23;12.60;;;7.47;;
21087;SDS011;10702;51.516;9.944;2023-02-19T03:39:51;12.57;;;6.73;;
21087;SDS011;10702;51.516;9.944;2023-02-19T03:42:25;15.47;;;8.47;;
21087;SDS011;10702;51.516;9.944;2023-02-19T03:44:58;15.23;;;8.90;;
21087;SDS011;10702;51.516;9.944;2023-02-19T03:47:28;15.77;;;9.00;;
21087;SDS011;10702;51.516;9.944;2023-02-19T03:49:58;16.47;;;9.43;;
21087;SDS011;10702;51.516;9.944;2023-02-19T03:52:29;13.93;;;8.40;;
21087;SDS011;10702;51.516;9.944;2023-02-19T03:55:02;14.97;;;8.80;;
21087;SDS011;10702;51.516;9.944;2023-02-19T03:57:33;15.30;;;8.40;;
21087;SDS011;10702;51.516;9.944;2023-02-19T04:00:03;14.60;;;8.20;;
21087;SDS011;10702;51.516;9.944;2023-02-19T04:02:32;13.53;;;7.80;;
21087;SDS011;10702;51.516;9.944;2023-02-19T04:05:03;15.63;;;7.87;;
21087;SDS011;10702;51.516;9.944;2023-02-19T04:07:33;14.93;;;8.40;;
21087;SDS011;10702;51.516;9.944;2023-02-19T04:10:02;14.53;;;8.23;;
21087;SDS011;10702;51.516;9.944;2023-02-19T04:12:30;19.17;;;8.63;;
21087;SDS011;10702;51.516;9.944;2023-02-19T04:14:58;19.07;;;8.83;;
21087;SDS011;10702;51.516;9.944;2023-02-19T04:17:28;19.60;;;9.73;;
21087;SDS011;10702;51.516;9.944;2023-02-19T04:19:57;19.67;;;9.70;;
21087;SDS011;10702;51.516;9.944;2023-02-19T04:22:26;16.93;;;8.87;;
21087;SDS011;10702;51.516;9.944;2023-02-19T04:24:54;14.57;;;8.43;;
21087;SDS011;10702;51.516;9.944;2023-02-19T04:27:21;16.27;;;8.70;;
21087;SDS011;10702;51.516;9.944;2023-02-19T04:29:49;14.77;;;8.70;;
21087;SDS011;10702;51.516;9.944;2023-02-19T04:32:16;16.63;;;9.17;;
21087;SDS011;10702;51.516;9.944;2023-02-19T04:34:44;16.27;;;8.50;;
21087;SDS011;10702;51.516;9.944;2023-02-19T04:37:11;20.10;;;9.70;;
21087;SDS011;10702;51.516;9.944;2023-02-19T04:39:40;17.80;;;8.17;;
21087;SDS011;10702;51.516;9.944;2023-02-19T04:42:08;19.17;;;8.90;;
21087;SDS011;10702;51.516;9.944;2023-02-19T04:44:36;15.83;;;8.57;;
21087;SDS011;10702;51.516;9.944;2023-02-19T04:47:03;15.00;;;8.00;;
21087;SDS011;10702;51.516;9.944;2023-02-19T04:49:30;14.73;;;7.90;;
21087;SDS011;10702;51.516;9.944;2023-02-19T04:51:58;13.50;;;7.03;;
21087;SDS011;10702;51.516;9.944;2023-02-19T04:54:25;12.20;;;6.83;;
21087;SDS011;10702;51.516;9.944;2023-02-19T04:56:54;12.43;;;7.10;;
21087;SDS011;10702;51.516;9.944;2023-02-19T04:59:22;12.10;;;6.90;;
21087;SDS011;10702;51.516;9.944;2023-02-19T05:01:49;13.10;;;6.97;;
21087;SDS011;10702;51.516;9.944;2023-02-19T05:04:17;14.37;;;7.30;;
21087;SDS011;10702;51.516;9.944;2023-02-19T05:06:44;11.07;;;6.80;;
21087;SDS011;10702;51.516;9.944;2023-02-19T05:09:12;11.20;;;6.43;;
21087;SDS011;10702;51.516;9.944;2023-02-19T05:11:39;12.83;;;6.53;;
21087;SDS011;10702;51.516;9.944;2023-02-19T05:14:08;9.60;;;6.60;;
21087;SDS011;10702;51.516;9.944;2023-02-19T05:16:35;12.33;;;6.63;;
21087;SDS011;10702;51.516;9.944;2023-02-19T05:19:02;11.63;;;6.37;;
21087;SDS011;10702;51.516;9.944;2023-02-19T05:21:30;13.70;;;6.90;;
21087;SDS011;10702;51.516;9.944;2023-02-19T05:23:57;9.47;;;5.90;;
21087;SDS011;10702;51.516;9.944;2023-02-19T05:26:24;15.03;;;6.77;;
21087;SDS011;10702;51.516;9.944;2023-02-19T05:28:52;10.20;;;5.60;;
21087;SDS011;10702;51.516;9.944;2023-02-19T05:31:21;8.47;;;4.87;;
21087;SDS011;10702;51.516;9.944;2023-02-19T05:33:48;6.43;;;3.13;;
21087;SDS011;10702;51.516;9.944;2023-02-19T05:36:18;5.83;;;2.90;;
21087;SDS011;10702;51.516;9.944;2023-02-19T05:38:46;7.50;;;2.93;;
21087;SDS011;10702;51.516;9.944;2023-02-19T05:41:14;4.23;;;2.50;;
21087;SDS011;10702;51.516;9.944;2023-02-19T05:43:43;4.53;;;2.23;;
21087;SDS011;10702;51.516;9.944;2023-02-19T05:46:11;3.80;;;2.40;;
21087;SDS011;10702;51.516;9.944;2023-02-19T05:48:40;3.37;;;2.00;;
21087;SDS011;10702;51.516;9.944;2023-02-19T05:51:09;2.97;;;1.83;;
21087;SDS011;10702;51.516;9.944;2023-02-19T05:53:37;2.50;;;1.60;;
21087;SDS011;10702;51.516;9.944;2023-02-19T05:56:12;2.90;;;1.90;;
21087;SDS011;10702;51.516;9.944;2023-02-19T05:58:45;3.23;;;1.67;;
21087;SDS011;10702;51.516;9.944;2023-02-19T06:01:13;2.80;;;1.60;;
21087;SDS011;10702;51.516;9.944;2023-02-19T06:03:42;2.57;;;1.50;;
21087;SDS011;10702;51.516;9.944;2023-02-19T06:06:10;3.20;;;1.60;;
21087;SDS011;10702;51.516;9.944;2023-02-19T06:08:39;2.63;;;1.53;;
21087;SDS011;10702;51.516;9.944;2023-02-19T06:11:06;4.63;;;1.90;;
21087;SDS011;10702;51.516;9.944;2023-02-19T06:13:34;4.70;;;1.93;;
21087;SDS011;10702;51.516;9.944;2023-02-19T06:16:02;3.63;;;2.30;;
21087;SDS011;10702;51.516;9.944;2023-02-19T06:18:29;3.67;;;2.57;;
21087;SDS011;10702;51.516;9.944;2023-02-19T06:21:00;4.60;;;2.67;;
21087;SDS011;10702;51.516;9.944;2023-02-19T06:23:28;4.80;;;2.63;;
21087;SDS011;10702;51.516;9.944;2023-02-19T06:26:03;4.07;;;2.83;;
21087;SDS011;10702;51.516;9.944;2023-02-19T06:28:30;7.00;;;3.10;;
21087;SDS011;10702;51.516;9.944;2023-02-19T06:30:58;5.30;;;2.90;;
21087;SDS011;10702;51.516;9.944;2023-02-19T06:33:25;6.63;;;3.30;;
21087;SDS011;10702;51.516;9.944;2023-02-19T06:35:52;6.03;;;3.13;;
21087;SDS011;10702;51.516;9.944;2023-02-19T06:38:21;4.37;;;3.20;;
21087;SDS011;10702;51.516;9.944;2023-02-19T06:40:48;6.97;;;3.53;;
21087;SDS011;10702;51.516;9.944;2023-02-19T06:43:16;6.80;;;3.70;;
21087;SDS011;10702;51.516;9.944;2023-02-19T06:45:43;7.07;;;3.90;;
21087;SDS011;10702;51.516;9.944;2023-02-19T06:48:11;6.80;;;3.70;;
21087;SDS011;10702;51.516;9.944;2023-02-19T06:50:38;6.63;;;3.80;;
21087;SDS011;10702;51.516;9.944;2023-02-19T06:53:05;7.60;;;3.67;;
21087;SDS011;10702;51.516;9.944;2023-02-19T06:55:35;9.80;;;4.10;;
21087;SDS011;10702;51.516;9.944;2023-02-19T06:58:03;8.90;;;4.00;;
21087;SDS011;10702;51.516;9.944;2023-02-19T07:00:30;5.97;;;3.50;;
21087;SDS011;10702;51.516;9.944;2023-02-19T07:02:58;7.93;;;4.20;;
21087;SDS011;10702;51.516;9.944;2023-02-19T07:05:26;6.27;;;3.90;;
21087;SDS011;10702;51.516;9.944;2023-02-19T07:07:53;7.20;;;4.20;;
21087;SDS011;10702;51.516;9.944;2023-02-19T07:10:20;6.37;;;4.17;;
21087;SDS011;10702;51.516;9.944;2023-02-19T07:12:49;5.67;;;3.80;;
21087;SDS011;10702;51.516;9.944;2023-02-19T07:15:16;6.07;;;3.87;;
21087;SDS011;10702;51.516;9.944;2023-02-19T07:17:44;6.90;;;4.13;;
21087;SDS011;10702;51.516;9.944;2023-02-19T07:20:11;8.17;;;3.77;;
21087;SDS011;10702;51.516;9.944;2023-02-19T07:22:39;7.43;;;3.90;;
21087;SDS011;10702;51.516;9.944;2023-02-19T07:25:06;8.13;;;4.50;;
21087;SDS011;10702;51.516;9.944;2023-02-19T07:27:34;8.37;;;4.80;;
21087;SDS011;10702;51.516;9.944;2023-02-19T07:30:04;8.90;;;4.17;;
21087;SDS011;10702;51.516;9.944;2023-02-19T07:32:31;7.43;;;3.67;;
21087;SDS011;10702;51.516;9.944;2023-02-19T07:34:59;3.60;;;1.70;;
21087;SDS011;10702;51.516;9.944;2023-02-19T07:37:26;2.63;;;1.20;;
21087;SDS011;10702;51.516;9.944;2023-02-19T07:39:53;1.43;;;0.90;;
21087;SDS011;10702;51.516;9.944;2023-02-19T07:42:21;0.83;;;0.60;;
21087;SDS011;10702;51.516;9.944;2023-02-19T07:44:48;0.90;;;0.60;;
21087;SDS011;10702;51.516;9.944;2023-02-19T07:47:17;0.97;;;0.50;;
21087;SDS011;10702;51.516;9.944;2023-02-19T07:49:44;0.40;;;0.40;;
21087;SDS011;10702;51.516;9.944;2023-02-19T07:52:11;0.43;;;0.30;;
21087;SDS011;10702;51.516;9.944;2023-02-19T07:54:39;0.60;;;0.40;;
21087;SDS011;10702;51.516;9.944;2023-02-19T07:57:06;0.30;;;0.30;;
21087;SDS011;10702;51.516;9.944;2023-02-19T07:59:33;0.40;;;0.30;;
21087;SDS011;10702;51.516;9.944;2023-02-19T08:02:01;0.40;;;0.40;;
21087;SDS011;10702;51.516;9.944;2023-02-19T08:04:47;0.30;;;0.20;;
21087;SDS011;10702;51.516;9.944;2023-02-19T08:07:14;0.50;;;0.30;;
21087;SDS011;10702;51.516;9.944;2023-02-19T08:09:42;1.17;;;0.73;;
21087;SDS011;10702;51.516;9.944;2023-02-19T08:12:09;0.30;;;0.23;;
21087;SDS011;10702;51.516;9.944;2023-02-19T08:14:55;0.60;;;0.33;;
21087;SDS011;10702;51.516;9.944;2023-02-19T08:17:23;0.30;;;0.30;;
21087;SDS011;10702;51.516;9.944;2023-02-19T08:19:51;0.40;;;0.37;;
21087;SDS011;10702;51.516;9.944;2023-02-19T08:22:19;1.23;;;0.50;;
21087;SDS011;10702;51.516;9.944;2023-02-19T08:24:46;0.73;;;0.40;;
21087;SDS011;10702;51.516;9.944;2023-02-19T08:27:13;0.87;;;0.40;;
21087;SDS011;10702;51.516;9.944;2023-02-19T08:29:41;2.10;;;0.80;;
21087;SDS011;10702;51.516;9.944;2023-02-19T08:32:08;0.70;;;0.40;;
21087;SDS011;10702;51.516;9.944;2023-02-19T08:34:36;0.50;;;0.40;;
21087;SDS011;10702;51.516;9.944;2023-02-19T08:37:04;0.67;;;0.50;;
21087;SDS011;10702;51.516;9.944;2023-02-19T08:39:32;0.90;;;0.63;;
21087;SDS011;10702;51.516;9.944;2023-02-19T08:41:59;1.03;;;0.63;;
21087;SDS011;10702;51.516;9.944;2023-02-19T08:44:27;1.10;;;0.80;;
21087;SDS011;10702;51.516;9.944;2023-02-19T08:46:55;1.87;;;0.70;;
21087;SDS011;10702;51.516;9.944;2023-02-19T08:49:24;1.23;;;0.80;;
21087;SDS011;10702;51.516;9.944;2023-02-19T08:51:51;0.80;;;0.67;;
21087;SDS011;10702;51.516;9.944;2023-02-19T08:54:20;0.83;;;0.67;;
21087;SDS011;10702;51.516;9.944;2023-02-19T08:56:47;1.73;;;0.60;;
21087;SDS011;10702;51.516;9.944;2023-02-19T08:59:15;1.00;;;0.80;;
21087;SDS011;10702;51.516;9.944;2023-02-19T09:01:42;0.97;;;0.60;;
21087;SDS011;10702;51.516;9.944;2023-02-19T09:04:10;0.70;;;0.50;;
21087;SDS011;10702;51.516;9.944;2023-02-19T09:06:38;0.50;;;0.50;;
21087;SDS011;10702;51.516;9.944;2023-02-19T09:09:05;1.73;;;1.00;;
21087;SDS011;10702;51.516;9.944;2023-02-19T09:11:34;0.60;;;0.47;;
21087;SDS011;10702;51.516;9.944;2023-02-19T09:14:01;1.30;;;0.97;;
21087;SDS011;10702;51.516;9.944;2023-02-19T09:16:31;1.67;;;0.90;;
21087;SDS011;10702;51.516;9.944;2023-02-19T09:18:58;0.80;;;0.67;;
21087;SDS011;10702;51.516;9.944;2023-02-19T09:21:25;0.50;;;0.40;;
21087;SDS011;10702;51.516;9.944;2023-02-19T09:23:53;1.40;;;0.40;;
21087;SDS011;10702;51.516;9.944;2023-02-19T09:26:20;1.63;;;0.60;;
21087;SDS011;10702;51.516;9.944;2023-02-19T09:28:51;1.33;;;0.80;;
21087;SDS011;10702;51.516;9.944;2023-02-19T09:31:18;1.00;;;0.70;;
21087;SDS011;10702;51.516;9.944;2023-02-19T09:33:46;0.67;;;0.63;;
21087;SDS011;10702;51.516;9.944;2023-02-19T09:36:14;1.27;;;0.80;;
21087;SDS011;10702;51.516;9.944;2023-02-19T09:38:43;0.83;;;0.60;;
21087;SDS011;10702;51.516;9.944;2023-02-19T09:41:13;1.23;;;0.70;;
21087;SDS011;10702;51.516;9.944;2023-02-19T09:43:41;0.60;;;0.60;;
21087;SDS011;10702;51.516;9.944;2023-02-19T09:46:21;0.80;;;0.67;;
21087;SDS011;10702;51.516;9.944;2023-02-19T09:48:49;1.50;;;1.23;;
21087;SDS011;10702;51.516;9.944;2023-02-19T09:51:17;1.40;;;1.20;;
21087;SDS011;10702;51.516;9.944;2023-02-19T09:53:45;1.00;;;0.80;;
21087;SDS011;10702;51.516;9.944;2023-02-19T09:56:14;1.50;;;1.00;;
21087;SDS011;10702;51.516;9.944;2023-02-19T09:58:43;1.20;;;0.70;;
21087;SDS011;10702;51.516;9.944;2023-02-19T10:01:13;0.90;;;0.67;;
21087;SDS011;10702;51.516;9.944;2023-02-19T10:03:42;1.40;;;0.60;;
21087;SDS011;10702;51.516;9.944;2023-02-19T10:06:13;0.50;;;0.43;;
21087;SDS011;10702;51.516;9.944;2023-02-19T10:08:42;0.57;;;0.50;;
21087;SDS011;10702;51.516;9.944;2023-02-19T10:11:11;0.83;;;0.50;;
21087;SDS011;10702;51.516;9.944;2023-02-19T10:13:40;2.17;;;0.70;;
21087;SDS011;10702;51.516;9.944;2023-02-19T10:16:09;0.83;;;0.70;;
21087;SDS011;10702;51.516;9.944;2023-02-19T10:18:42;0.70;;;0.60;;
21087;SDS011;10702;51.516;9.944;2023-02-19T10:21:11;0.70;;;0.70;;
21087;SDS011;10702;51.516;9.944;2023-02-19T10:23:40;1.20;;;0.90;;
21087;SDS011;10702;51.516;9.944;2023-02-19T10:26:08;1.00;;;0.73;;
21087;SDS011;10702;51.516;9.944;2023-02-19T10:28:36;1.27;;;0.90;;
21087;SDS011;10702;51.516;9.944;2023-02-19T10:31:04;1.00;;;0.90;;
21087;SDS011;10702;51.516;9.944;2023-02-19T10:33:33;1.10;;;0.70;;
21087;SDS011;10702;51.516;9.944;2023-02-19T10:36:18;0.90;;;0.70;;
21087;SDS011;10702;51.516;9.944;2023-02-19T10:38:50;0.90;;;0.73;;
21087;SDS011;10702;51.516;9.944;2023-02-19T10:41:18;1.10;;;0.80;;
21087;SDS011;10702;51.516;9.944;2023-02-19T10:43:49;0.90;;;0.80;;
21087;SDS011;10702;51.516;9.944;2023-02-19T10:46:18;0.93;;;0.70;;
21087;SDS011;10702;51.516;9.944;2023-02-19T10:48:49;0.77;;;0.70;;
21087;SDS011;10702;51.516;9.944;2023-02-19T10:51:19;1.07;;;0.73;;
21087;SDS011;10702;51.516;9.944;2023-02-19T10:53:49;1.43;;;0.90;;
21087;SDS011;10702;51.516;9.944;2023-02-19T10:56:21;1.47;;;0.70;;
21087;SDS011;10702;51.516;9.944;2023-02-19T10:58:49;0.90;;;0.60;;
21087;SDS011;10702;51.516;9.944;2023-02-19T11:01:17;2.30;;;0.80;;
21087;SDS011;10702;51.516;9.944;2023-02-19T11:03:48;0.80;;;0.67;;
21087;SDS011;10702;51.516;9.944;2023-02-19T11:06:17;0.87;;;0.60;;
21087;SDS011;10702;51.516;9.944;2023-02-19T11:08:51;0.50;;;0.50;;
21087;SDS011;10702;51.516;9.944;2023-02-19T11:11:31;0.40;;;0.40;;
21087;SDS011;10702;51.516;9.944;2023-02-19T11:14:01;0.60;;;0.40;;
21087;SDS011;10702;51.516;9.944;2023-02-19T11:16:36;0.60;;;0.40;;
21087;SDS011;10702;51.516;9.944;2023-02-19T11:19:04;0.50;;;0.40;;
21087;SDS011;10702;51.516;9.944;2023-02-19T11:21:32;0.30;;;0.30;;
21087;SDS011;10702;51.516;9.944;2023-02-19T11:24:01;0.70;;;0.57;;
21087;SDS011;10702;51.516;9.944;2023-02-19T11:26:30;0.67;;;0.40;;
21087;SDS011;10702;51.516;9.944;2023-02-19T11:28:58;0.60;;;0.43;;
21087;SDS011;10702;51.516;9.944;2023-02-19T11:31:27;0.60;;;0.50;;
21087;SDS011;10702;51.516;9.944;2023-02-19T11:33:57;0.50;;;0.40;;
21087;SDS011;10702;51.516;9.944;2023-02-19T11:36:26;0.97;;;0.50;;
21087;SDS011;10702;51.516;9.944;2023-02-19T11:38:56;0.40;;;0.40;;
21087;SDS011;10702;51.516;9.944;2023-02-19T11:41:33;1.30;;;0.60;;
21087;SDS011;10702;51.516;9.944;2023-02-19T11:44:06;4.10;;;1.67;;
21087;SDS011;10702;51.516;9.944;2023-02-19T11:46:36;0.63;;;0.43;;
21087;SDS011;10702;51.516;9.944;2023-02-19T11:49:10;4.77;;;2.37;;
21087;SDS011;10702;51.516;9.944;2023-02-19T11:51:49;1.37;;;0.80;;
21087;SDS011;10702;51.516;9.944;2023-02-19T11:57:04;1.10;;;0.50;;
21087;SDS011;10702;51.516;9.944;2023-02-19T11:59:34;1.27;;;0.60;;
21087;SDS011;10702;51.516;9.944;2023-02-19T12:02:10;0.73;;;0.50;;
21087;SDS011;10702;51.516;9.944;2023-02-19T12:07:27;0.57;;;0.40;;
21087;SDS011;10702;51.516;9.944;2023-02-19T12:10:02;1.10;;;0.60;;
21087;SDS011;10702;51.516;9.944;2023-02-19T12:12:37;1.00;;;0.50;;
21087;SDS011;10702;51.516;9.944;2023-02-19T12:15:12;2.07;;;0.60;;
21087;SDS011;10702;51.516;9.944;2023-02-19T12:17:52;1.30;;;0.60;;
21087;SDS011;10702;51.516;9.944;2023-02-19T12:20:23;1.20;;;0.87;;
21087;SDS011;10702;51.516;9.944;2023-02-19T12:22:54;2.10;;;0.70;;
21087;SDS011;10702;51.516;9.944;2023-02-19T12:25:36;0.63;;;0.50;;
21087;SDS011;10702;51.516;9.944;2023-02-19T12:28:14;0.70;;;0.47;;
21087;SDS011;10702;51.516;9.944;2023-02-19T12:30:57;0.83;;;0.60;;
21087;SDS011;10702;51.516;9.944;2023-02-19T12:33:33;0.80;;;0.50;;
21087;SDS011;10702;51.516;9.944;2023-02-19T12:36:08;0.90;;;0.50;;
21087;SDS011;10702;51.516;9.944;2023-02-19T12:38:42;1.63;;;0.60;;
21087;SDS011;10702;51.516;9.944;2023-02-19T12:41:14;1.63;;;0.63;;
21087;SDS011;10702;51.516;9.944;2023-02-19T12:43:49;1.63;;;1.00;;
21087;SDS011;10702;51.516;9.944;2023-02-19T12:46:17;0.70;;;0.50;;
21087;SDS011;10702;51.516;9.944;2023-02-19T12:48:48;1.93;;;0.90;;
21087;SDS011;10702;51.516;9.944;2023-02-19T12:51:18;1.80;;;0.70;;
21087;SDS011;10702;51.516;9.944;2023-02-19T12:53:48;1.10;;;0.70;;
21087;SDS011;10702;51.516;9.944;2023-02-19T12:56:19;1.03;;;0.53;;
21087;SDS011;10702;51.516;9.944;2023-02-19T12:58:49;1.20;;;0.50;;
21087;SDS011;10702;51.516;9.944;2023-02-19T13:01:19;0.40;;;0.40;;
21087;SDS011;10702;51.516;9.944;2023-02-19T13:03:49;0.93;;;0.47;;
21087;SDS011;10702;51.516;9.944;2023-02-19T13:06:23;1.03;;;0.60;;
21087;SDS011;10702;51.516;9.944;2023-02-19T13:08:52;0.87;;;0.50;;
21087;SDS011;10702;51.516;9.944;2023-02-19T13:11:32;0.77;;;0.53;;
21087;SDS011;10702;51.516;9.944;2023-02-19T13:14:04;0.80;;;0.40;;
21087;SDS011;10702;51.516;9.944;2023-02-19T13:16:33;0.80;;;0.50;;
21087;SDS011;10702;51.516;9.944;2023-02-19T13:19:03;2.30;;;0.60;;
21087;SDS011;10702;51.516;9.944;2023-02-19T13:21:31;1.73;;;0.80;;
21087;SDS011;10702;51.516;9.944;2023-02-19T13:24:19;1.53;;;0.47;;
21087;SDS011;10702;51.516;9.944;2023-02-19T13:26:50;1.27;;;0.50;;
21087;SDS011;10702;51.516;9.944;2023-02-19T13:29:26;1.50;;;0.57;;
21087;SDS011;10702;51.516;9.944;2023-02-19T13:32:04;0.60;;;0.50;;
21087;SDS011;10702;51.516;9.944;2023-02-19T13:34:43;1.23;;;0.70;;
21087;SDS011;10702;51.516;9.944;2023-02-19T13:37:13;1.40;;;0.70;;
21087;SDS011;10702;51.516;9.944;2023-02-19T13:39:44;1.03;;;0.80;;
21087;SDS011;10702;51.516;9.944;2023-02-19T13:42:18;1.10;;;0.70;;
21087;SDS011;10702;51.516;9.944;2023-02-19T13:44:50;1.57;;;0.80;;
21087;SDS011;10702;51.516;9.944;2023-02-19T13:50:11;2.20;;;0.80;;
21087;SDS011;10702;51.516;9.944;2023-02-19T13:52:43;1.47;;;0.80;;
21087;SDS011;10702;51.516;9.944;2023-02-19T14:00:49;3.43;;;2.10;;
21087;SDS011;10702;51.516;9.944;2023-02-19T14:03:25;1.53;;;1.00;;
21087;SDS011;10702;51.516;9.944;2023-02-19T14:05:57;1.37;;;1.10;;
21087;SDS011;10702;51.516;9.944;2023-02-19T14:11:07;0.90;;;0.80;;
21087;SDS011;10702;51.516;9.944;2023-02-19T14:22:03;2.27;;;1.03;;
21087;SDS011;10702;51.516;9.944;2023-02-19T14:24:51;2.43;;;0.80;;
21087;SDS011;10702;51.516;9.944;2023-02-19T14:27:19;1.30;;;1.13;;
21087;SDS011;10702;51.516;9.944;2023-02-19T14:29:47;1.30;;;0.60;;
21087;SDS011;10702;51.516;9.944;2023-02-19T14:32:15;1.77;;;0.70;;
21087;SDS011;10702;51.516;9.944;2023-02-19T14:34:45;1.13;;;0.60;;
21087;SDS011;10702;51.516;9.944;2023-02-19T14:37:14;1.63;;;0.70;;
21087;SDS011;10702;51.516;9.944;2023-02-19T14:39:43;1.10;;;0.63;;
21087;SDS011;10702;51.516;9.944;2023-02-19T14:42:14;1.53;;;0.50;;
21087;SDS011;10702;51.516;9.944;2023-02-19T14:44:44;1.43;;;0.60;;
21087;SDS011;10702;51.516;9.944;2023-02-19T14:47:13;1.27;;;0.70;;
21087;SDS011;10702;51.516;9.944;2023-02-19T14:49:43;1.57;;;0.63;;
21087;SDS011;10702;51.516;9.944;2023-02-19T14:52:12;1.00;;;0.60;;
21087;SDS011;10702;51.516;9.944;2023-02-19T14:54:42;0.83;;;0.60;;
21087;SDS011;10702;51.516;9.944;2023-02-19T14:57:16;2.43;;;0.80;;
21087;SDS011;10702;51.516;9.944;2023-02-19T14:59:51;1.33;;;0.57;;
21087;SDS011;10702;51.516;9.944;2023-02-19T15:02:19;1.27;;;0.60;;
21087;SDS011;10702;51.516;9.944;2023-02-19T15:04:47;0.60;;;0.40;;
21087;SDS011;10702;51.516;9.944;2023-02-19T15:07:15;1.97;;;0.83;;
21087;SDS011;10702;51.516;9.944;2023-02-19T15:09:45;1.40;;;0.57;;
21087;SDS011;10702;51.516;9.944;2023-02-19T15:12:15;1.73;;;0.60;;
21087;SDS011;10702;51.516;9.944;2023-02-19T15:14:43;1.13;;;0.67;;
21087;SDS011;10702;51.516;9.944;2023-02-19T15:17:11;1.57;;;0.50;;
21087;SDS011;10702;51.516;9.944;2023-02-19T15:19:42;19.20;;;11.83;;
21087;SDS011;10702;51.516;9.944;2023-02-19T15:22:11;3.77;;;2.57;;
21087;SDS011;10702;51.516;9.944;2023-02-19T15:24:42;2.50;;;1.07;;
21087;SDS011;10702;51.516;9.944;2023-02-19T15:27:15;2.20;;;1.73;;
21087;SDS011;10702;51.516;9.944;2023-02-19T15:29:44;1.57;;;0.90;;
21087;SDS011;10702;51.516;9.944;2023-02-19T15:32:14;1.87;;;0.90;;
21087;SDS011;10702;51.516;9.944;2023-02-19T15:34:44;2.63;;;0.80;;